Rick Husband Amarillo International Airport
KAMA : now visible

Airfield :











YOU CAN JOIN US ON...

 
LOGIN :

Register | Disclaimer

   EN    FR    IT 

 









Legend :    VFR   Marginal VFR   IFR   Intensive IFR   Very Intensive IFR
Visi :
Ceiling :
>= 8 km
>= 3000ft
5 to 8 km
1000 to 3000 ft
1500m to 5 km
500 to 1000 ft
800 to 1500m
200 to 500 ft
< 800m
< 200 ft
Symbols :   Thunderstorms  Fog  Heavy snow  Heavy precipitations  Wind > 20 kt







- Airport Elevation : 3607 ft
- IATA code : AMA


KAMA - Rick Husband Amarillo International

CURRENT METAR :
  • 192353Z 24005KT 9SM OVC007 M04/M07 A2985 RMK AO2 SLP134 I6000 T10441067 11044 21067 58009

EXPIRED METARs :
  • 192253Z 22004KT 8SM OVC007 M04/M06 A2987 RMK AO2 SLP141 T10441061
  • 192153Z 14005KT 7SM OVC007 M04/M06 A2987 RMK AO2 SLP143 T10441061
  • 192101Z 13005KT 6SM BR OVC007 M05/M07 A2988 RMK AO2 T10501067
  • 192053Z 11005KT 2SM BR OVC007 M05/M07 A2988 RMK AO2 SFC VIS 5 SLP146 I1000 I3000 T10501067 56024

TAF KAMA
Valid from the 20 at 00:00 until the 21 at 00:00 UTC


192320Z 2000/2024 16006KT P6SM BKN007 OVC020
FM200200 16006KT P6SM BKN030
TEMPO 2003/2006 4SM -SN OVC009
FM200700 19009KT P6SM SCT150
FM202000 26013KT P6SM SKC
KZAB FIR / North America



MET'MAP, your aeronautical weather chart ! - Copyright ORBIFLY December 2007 - Disclaimer

ORBIFLY MET'MAP TEAM :

Programming & Development : Alexandra Zaïnal
Concept & Development : Baudouin d'Aumeries
Co-Development & Prog : Marc-Olivier Méhu
Technical & hardware support : Manuel Goepfert

Contact : metmap@orbifly.com




SOURCES & CREDITS :

   NOAA       Earth
Advisory